createdAt,value
2019-02-11T00:02:07.798Z,98731.22
2019-02-11T00:04:39.458Z,98723.94
2019-02-11T00:07:11.029Z,98712.81
2019-02-11T00:09:42.683Z,98713.77
2019-02-11T00:12:14.251Z,98715.53
2019-02-11T00:14:45.907Z,98716.34
2019-02-11T00:17:17.553Z,98710.37
2019-02-11T00:19:49.163Z,98715.53
2019-02-11T00:22:20.864Z,98719.23
2019-02-11T00:24:52.435Z,98717.70
2019-02-11T00:27:24.191Z,98716.56
2019-02-11T00:29:55.898Z,98711.38
2019-02-11T00:32:27.899Z,98703.16
2019-02-11T00:34:59.623Z,98702.93
2019-02-11T00:37:31.561Z,98704.43
2019-02-11T00:40:03.121Z,98703.16
2019-02-11T00:42:34.914Z,98707.17
2019-02-11T00:45:08.706Z,98712.81
2019-02-11T00:47:40.377Z,98710.72
2019-02-11T00:50:12.520Z,98721.45
2019-02-11T00:52:44.151Z,98723.47
2019-02-11T00:55:15.796Z,98732.34
2019-02-11T00:57:47.516Z,98732.97
2019-02-11T01:00:19.242Z,98730.53
2019-02-11T01:02:51.645Z,98733.59
2019-02-11T01:05:23.229Z,98744.70
2019-02-11T01:07:54.827Z,98736.20
2019-02-11T01:10:26.504Z,98733.98
2019-02-11T01:12:58.137Z,98742.41
2019-02-11T01:15:29.732Z,98747.52
2019-02-11T01:18:01.567Z,98751.27
2019-02-11T01:20:33.160Z,98751.27
2019-02-11T01:23:04.775Z,98746.48
2019-02-11T01:25:38.246Z,98732.30
2019-02-11T01:28:09.937Z,98736.40
2019-02-11T01:30:41.627Z,98743.52
2019-02-11T01:33:13.463Z,98744.01
2019-02-11T01:35:45.297Z,98744.30
2019-02-11T01:38:16.884Z,98742.83
2019-02-11T01:40:48.534Z,98728.09
2019-02-11T01:43:20.129Z,98734.95
2019-02-11T01:45:51.844Z,98743.61
2019-02-11T01:48:24.152Z,98729.81
2019-02-11T01:50:55.741Z,98737.19
2019-02-11T01:53:27.401Z,98725.21
2019-02-11T01:55:59.045Z,98726.56
2019-02-11T01:58:30.802Z,98728.85
2019-02-11T02:01:02.437Z,98730.09
2019-02-11T02:03:34.318Z,98725.78
2019-02-11T02:06:06.061Z,98728.94
2019-02-11T02:08:37.708Z,98721.00
2019-02-11T02:11:09.290Z,98716.76
2019-02-11T02:13:44.919Z,98713.41
2019-02-11T02:16:14.110Z,98722.98
2019-02-11T02:18:45.977Z,98717.89
2019-02-11T02:21:17.659Z,98712.57
2019-02-11T02:23:49.351Z,98716.95
2019-02-11T02:26:21.008Z,98715.52
2019-02-11T02:28:52.584Z,98712.35
2019-02-11T02:31:24.236Z,98719.46
2019-02-11T02:33:56.206Z,98724.54
2019-02-11T02:36:28.036Z,98715.76
2019-02-11T02:38:59.603Z,98716.66
2019-02-11T02:41:31.249Z,98726.81
2019-02-11T02:44:02.910Z,98730.48
2019-02-11T02:46:35.282Z,98727.80
2019-02-11T02:49:07.372Z,98716.39
2019-02-11T02:51:39.101Z,98708.81
2019-02-11T02:54:10.749Z,98704.52
2019-02-11T02:56:42.316Z,98702.00
2019-02-11T02:59:13.907Z,98702.20
2019-02-11T03:01:45.494Z,98700.84
2019-02-11T03:04:17.115Z,98697.78
2019-02-11T03:06:49.123Z,98694.14
2019-02-11T03:09:20.693Z,98691.57
2019-02-11T03:11:52.284Z,98675.20
2019-02-11T03:14:23.921Z,98674.04
2019-02-11T03:16:55.491Z,98677.11
2019-02-11T03:19:27.067Z,98672.80
2019-02-11T03:21:58.768Z,98670.99
2019-02-11T03:24:30.429Z,98680.16
2019-02-11T03:27:02.022Z,98683.15
2019-02-11T03:29:33.685Z,98674.90
2019-02-11T03:32:05.272Z,98667.16
2019-02-11T03:34:39.646Z,98674.22
2019-02-11T03:37:11.315Z,98675.02
2019-02-11T03:39:42.925Z,98678.16
2019-02-11T03:42:14.504Z,98681.70
2019-02-11T03:44:46.155Z,98683.41
2019-02-11T03:47:17.730Z,98679.58
2019-02-11T03:49:49.386Z,98687.25
2019-02-11T03:52:20.960Z,98686.29
2019-02-11T03:54:52.934Z,98691.75
2019-02-11T03:57:24.568Z,98693.77
2019-02-11T03:59:56.154Z,98695.52
2019-02-11T04:02:28.422Z,98704.09
2019-02-11T04:05:00.285Z,98708.05
2019-02-11T04:07:31.920Z,98712.16
2019-02-11T04:10:04.233Z,98719.23
2019-02-11T04:12:35.824Z,98721.86
2019-02-11T04:15:09.426Z,98717.53
2019-02-11T04:17:41.018Z,98719.08
2019-02-11T04:20:13.651Z,98723.29
2019-02-11T04:22:45.292Z,98712.66
2019-02-11T04:25:16.953Z,98711.33
2019-02-11T04:27:48.609Z,98720.23
2019-02-11T04:30:20.369Z,98717.24
2019-02-11T04:32:52.063Z,98714.88
2019-02-11T04:35:23.654Z,98722.72
2019-02-11T04:37:55.308Z,98728.95
2019-02-11T04:40:26.928Z,98734.41
2019-02-11T04:42:58.553Z,98742.09
2019-02-11T04:45:30.134Z,98743.05
2019-02-11T04:48:01.845Z,98742.07
2019-02-11T04:50:33.406Z,98740.83
2019-02-11T04:53:04.988Z,98746.67
2019-02-11T04:55:36.592Z,98743.41
2019-02-11T04:58:08.223Z,98743.88
2019-02-11T05:00:39.946Z,98749.61
2019-02-11T05:03:13.176Z,98759.27
2019-02-11T05:05:44.771Z,98758.06
2019-02-11T05:08:16.396Z,98761.85
2019-02-11T05:10:47.972Z,98754.30
2019-02-11T05:13:19.705Z,98760.16
2019-02-11T05:15:51.346Z,98765.48
2019-02-11T05:18:23.382Z,98771.06
2019-02-11T05:20:55.187Z,98777.05
2019-02-11T05:23:26.750Z,98780.33
2019-02-11T05:25:58.457Z,98788.50
2019-02-11T05:28:30.014Z,98784.88
2019-02-11T05:31:01.694Z,98788.31
2019-02-11T05:33:33.358Z,98788.70
2019-02-11T05:36:04.994Z,98787.75
2019-02-11T05:38:36.539Z,98797.70
2019-02-11T05:41:08.268Z,98795.28
2019-02-11T05:43:39.893Z,98788.83
2019-02-11T05:46:11.530Z,98795.63
2019-02-11T05:48:43.079Z,98795.90
2019-02-11T05:51:14.628Z,98804.59
2019-02-11T05:53:46.186Z,98811.91
2019-02-11T05:56:17.759Z,98816.14
2019-02-11T05:58:49.359Z,98823.08
2019-02-11T06:01:20.983Z,98835.91
2019-02-11T06:03:52.558Z,98848.52
2019-02-11T06:06:24.148Z,98858.19
2019-02-11T06:08:55.749Z,98873.23
2019-02-11T06:11:27.389Z,98873.54
2019-02-11T06:13:58.973Z,98883.01
2019-02-11T06:16:30.527Z,98890.16
2019-02-11T06:19:02.207Z,98897.52
2019-02-11T06:21:33.853Z,98901.57
2019-02-11T06:24:05.425Z,98908.88
2019-02-11T06:26:37.057Z,98918.77
2019-02-11T06:29:08.607Z,98916.17
2019-02-11T06:31:40.171Z,98926.95
2019-02-11T06:34:11.817Z,98931.94
2019-02-11T06:36:43.454Z,98942.78
2019-02-11T06:39:15.062Z,98949.88
2019-02-11T06:41:46.712Z,98961.12
2019-02-11T06:44:18.359Z,98962.84
2019-02-11T06:46:52.691Z,98967.41
2019-02-11T06:49:24.276Z,98972.98
2019-02-11T06:51:55.850Z,98978.01
2019-02-11T06:54:27.491Z,98988.64
2019-02-11T06:56:59.129Z,98992.83
2019-02-11T06:59:30.771Z,98996.62
2019-02-11T07:02:02.436Z,98998.77
2019-02-11T07:04:34.081Z,99006.69
2019-02-11T07:07:05.724Z,99017.49
2019-02-11T07:09:37.290Z,99024.64
2019-02-11T07:12:08.960Z,99023.30
2019-02-11T07:14:40.603Z,99030.36
2019-02-11T07:17:12.203Z,99036.60
2019-02-11T07:19:43.782Z,99044.27
2019-02-11T07:22:15.345Z,99036.28
2019-02-11T07:24:46.902Z,99042.77
2019-02-11T07:27:18.482Z,99049.46
2019-02-11T07:29:50.071Z,99058.70
2019-02-11T07:32:21.749Z,99058.16
2019-02-11T07:34:54.180Z,99062.84
2019-02-11T07:37:25.775Z,99067.42
2019-02-11T07:39:57.428Z,99078.66
2019-02-11T07:42:33.617Z,99087.34
2019-02-11T07:45:12.883Z,99097.12
2019-02-11T07:47:46.152Z,99094.37
2019-02-11T07:50:17.720Z,99106.23
2019-02-11T07:52:49.299Z,99107.17
2019-02-11T07:55:20.968Z,99112.92
2019-02-11T07:57:52.550Z,99120.49
2019-02-11T08:00:25.980Z,99127.72
2019-02-11T08:02:57.536Z,99134.34
2019-02-11T08:05:29.184Z,99143.06
2019-02-11T08:08:00.765Z,99135.06
2019-02-11T08:10:32.401Z,99151.80
2019-02-11T08:13:04.082Z,99159.80
2019-02-11T08:15:38.651Z,99159.78
2019-02-11T08:18:08.926Z,99170.28
2019-02-11T08:20:40.571Z,99172.90
2019-02-11T08:23:13.811Z,99180.36
2019-02-11T08:25:45.519Z,99199.83
2019-02-11T08:28:19.494Z,99207.23
2019-02-11T08:30:50.381Z,99220.27
2019-02-11T08:33:22.019Z,99224.70
2019-02-11T08:35:53.607Z,99234.67
2019-02-11T08:38:25.162Z,99249.78
2019-02-11T08:40:56.747Z,99259.23
2019-02-11T08:43:28.463Z,99276.52
2019-02-11T08:46:00.142Z,99278.69
2019-02-11T08:48:31.730Z,99286.57
2019-02-11T08:51:03.436Z,99289.20
2019-02-11T08:53:35.069Z,99303.77
2019-02-11T08:56:06.710Z,99320.78
2019-02-11T08:58:38.475Z,99313.26
2019-02-11T09:01:10.115Z,99321.06
2019-02-11T09:03:41.818Z,99326.47
2019-02-11T09:06:13.928Z,99336.92
2019-02-11T09:08:45.518Z,99342.91
2019-02-11T09:11:17.099Z,99349.09
2019-02-11T09:13:48.757Z,99357.08
2019-02-11T09:16:20.512Z,99365.84
2019-02-11T09:18:52.197Z,99361.81
2019-02-11T09:21:23.838Z,99369.16
2019-02-11T09:23:55.473Z,99373.48
2019-02-11T09:26:27.159Z,99378.90
2019-02-11T09:28:58.807Z,99381.66
2019-02-11T09:31:30.448Z,99383.91
2019-02-11T09:34:02.020Z,99393.20
2019-02-11T09:36:35.309Z,99395.02
2019-02-11T09:39:07.445Z,99404.80
2019-02-11T09:41:39.009Z,99413.09
2019-02-11T09:44:10.576Z,99415.11
2019-02-11T09:46:42.213Z,99415.09
2019-02-11T09:49:13.962Z,99428.38
2019-02-11T09:51:46.689Z,99430.67
2019-02-11T09:54:18.397Z,99436.56
2019-02-11T09:56:50.128Z,99439.91
2019-02-11T09:59:22.085Z,99444.10
2019-02-11T10:01:53.733Z,99447.63
2019-02-11T10:04:25.508Z,99453.73
2019-02-11T10:06:57.349Z,99459.08
2019-02-11T10:09:28.990Z,99461.44
2019-02-11T10:12:00.873Z,99464.91
2019-02-11T10:14:32.711Z,99473.52
2019-02-11T10:17:04.825Z,99477.59
2019-02-11T10:19:36.431Z,99486.31
2019-02-11T10:22:08.004Z,99483.24
2019-02-11T10:24:39.781Z,99489.32
2019-02-11T10:27:11.725Z,99492.22
2019-02-11T10:29:43.301Z,99494.27
2019-02-11T10:32:14.957Z,99495.29
2019-02-11T10:34:46.699Z,99498.58
2019-02-11T10:37:18.288Z,99494.23
2019-02-11T10:39:49.894Z,99506.98
2019-02-11T10:42:21.548Z,99502.17
2019-02-11T10:44:53.205Z,99507.71
2019-02-11T10:47:24.918Z,99502.78
2019-02-11T10:49:56.486Z,99512.04
2019-02-11T10:52:28.054Z,99517.11
2019-02-11T10:54:59.644Z,99518.31
2019-02-11T10:57:31.220Z,99519.38
2019-02-11T11:00:02.869Z,99528.55
2019-02-11T11:02:36.031Z,99544.49
2019-02-11T11:05:11.460Z,99545.48
2019-02-11T11:07:43.405Z,99560.34
2019-02-11T11:10:19.797Z,99561.18
2019-02-11T11:12:51.470Z,99558.53
2019-02-11T11:15:23.208Z,99560.17
2019-02-11T11:17:54.888Z,99564.66
2019-02-11T11:20:27.729Z,99560.11
2019-02-11T11:22:59.305Z,99554.19
2019-02-11T11:25:30.972Z,99568.27
2019-02-11T11:28:02.645Z,99578.09
2019-02-11T11:30:34.255Z,99574.94
2019-02-11T11:33:05.822Z,99576.02
2019-02-11T11:35:37.683Z,99574.55
2019-02-11T11:38:09.598Z,99581.31
2019-02-11T11:40:42.656Z,99577.03
2019-02-11T11:43:14.371Z,99587.39
2019-02-11T11:45:57.971Z,99586.71
2019-02-11T11:48:43.867Z,99600.91
2019-02-11T11:51:18.557Z,99603.88
2019-02-11T11:53:52.356Z,99610.69
2019-02-11T11:56:25.837Z,99609.14
2019-02-11T11:58:58.226Z,99616.94
2019-02-11T12:01:29.850Z,99613.97
2019-02-11T12:04:01.882Z,99619.93
2019-02-11T12:06:35.061Z,99630.15
2019-02-11T12:09:07.108Z,99637.33
2019-02-11T12:11:38.789Z,99650.00
2019-02-11T12:14:10.387Z,99634.06
2019-02-11T12:16:56.293Z,99638.11
2019-02-11T12:19:15.459Z,99641.36
2019-02-11T12:21:47.097Z,99644.34
2019-02-11T12:24:18.677Z,99648.15
2019-02-11T12:26:50.259Z,99647.65
2019-02-11T12:29:21.970Z,99645.52
2019-02-11T12:31:53.521Z,99655.33
2019-02-11T12:34:25.143Z,99655.99
2019-02-11T12:36:56.785Z,99668.31
2019-02-11T12:39:28.518Z,99671.55
2019-02-11T12:42:00.381Z,99664.80
2019-02-11T12:44:32.098Z,99674.25
2019-02-11T12:47:13.883Z,99683.15
2019-02-11T12:49:37.096Z,99684.43
2019-02-11T12:52:08.744Z,99683.47
2019-02-11T12:54:40.381Z,99694.80
2019-02-11T12:57:12.215Z,99690.41
2019-02-11T12:59:44.868Z,99700.70
2019-02-11T13:02:17.496Z,99706.08
2019-02-11T13:04:49.074Z,99714.67
2019-02-11T13:07:20.742Z,99716.12
2019-02-11T13:09:52.329Z,99714.95
2019-02-11T13:12:24.290Z,99729.88
2019-02-11T13:15:09.432Z,99734.36
2019-02-11T13:17:41.059Z,99734.73
2019-02-11T13:20:17.600Z,99743.19
2019-02-11T13:22:49.312Z,99757.23
2019-02-11T13:25:20.890Z,99763.32
2019-02-11T13:27:52.454Z,99760.28
2019-02-11T13:30:26.066Z,99771.20
2019-02-11T13:32:59.875Z,99771.02
2019-02-11T13:35:43.603Z,99762.78
2019-02-11T13:38:15.245Z,99771.84
2019-02-11T13:40:46.929Z,99773.17
2019-02-11T13:43:19.573Z,99773.09
2019-02-11T13:45:51.201Z,99767.69
2019-02-11T13:48:23.329Z,99780.85
2019-02-11T13:50:54.840Z,99784.14
2019-02-11T13:53:26.434Z,99787.73
2019-02-11T13:55:59.063Z,99807.91
2019-02-11T13:58:30.779Z,99813.33
2019-02-11T14:01:02.427Z,99807.52
2019-02-11T14:03:34.566Z,99827.13
2019-02-11T14:06:06.287Z,99835.86
2019-02-11T14:08:37.904Z,99842.63
2019-02-11T14:11:09.577Z,99846.80
2019-02-11T14:13:41.242Z,99852.10
2019-02-11T14:16:12.807Z,99852.84
2019-02-11T14:18:44.379Z,99862.61
2019-02-11T14:21:16.432Z,99862.32
2019-02-11T14:23:48.075Z,99860.04
2019-02-11T14:26:19.895Z,99869.44
2019-02-11T14:28:51.582Z,99888.42
2019-02-11T14:31:23.386Z,99890.13
2019-02-11T14:33:55.216Z,99891.56
2019-02-11T14:36:27.109Z,99898.77
2019-02-11T14:38:59.065Z,99902.14
2019-02-11T14:41:30.854Z,99913.31
2019-02-11T14:44:02.766Z,99912.45
2019-02-11T14:46:34.440Z,99915.50
2019-02-11T14:49:06.193Z,99919.73
2019-02-11T14:51:38.196Z,99923.81
2019-02-11T14:54:10.054Z,99939.33
2019-02-11T14:56:42.966Z,99946.86
2019-02-11T14:59:14.537Z,99955.16
2019-02-11T15:01:46.219Z,99967.69
2019-02-11T15:04:18.305Z,99977.73
2019-02-11T15:06:49.883Z,99988.50
2019-02-11T15:09:21.505Z,99996.46
2019-02-11T15:11:53.167Z,100000.44
2019-02-11T15:14:24.916Z,100015.84
2019-02-11T15:17:09.548Z,100023.63
2019-02-11T15:19:41.335Z,100029.08
2019-02-11T15:22:12.958Z,100031.38
2019-02-11T15:24:44.943Z,100031.47
2019-02-11T15:27:17.501Z,100031.05
2019-02-11T15:29:49.344Z,100032.66
2019-02-11T15:32:22.573Z,100037.31
2019-02-11T15:34:55.638Z,100049.09
2019-02-11T15:37:29.584Z,100056.17
2019-02-11T15:40:01.277Z,100066.61
2019-02-11T15:42:34.091Z,100071.03
2019-02-11T15:45:10.441Z,100091.87
2019-02-11T15:47:42.220Z,100089.89
2019-02-11T15:50:18.319Z,100095.84
2019-02-11T15:52:50.054Z,100103.34
2019-02-11T15:55:22.162Z,100100.56
2019-02-11T15:57:53.767Z,100113.39
2019-02-11T16:00:27.065Z,100122.56
2019-02-11T16:02:59.769Z,100131.02
2019-02-11T16:05:31.498Z,100127.96
2019-02-11T16:08:03.647Z,100130.27
2019-02-11T16:10:35.330Z,100144.27
2019-02-11T16:13:07.411Z,100159.87
2019-02-11T16:15:39.069Z,100162.89
2019-02-11T16:18:10.621Z,100159.47
2019-02-11T16:20:42.185Z,100166.33
2019-02-11T16:23:13.920Z,100181.59
2019-02-11T16:25:46.237Z,100177.81
2019-02-11T16:28:17.879Z,100183.89
2019-02-11T16:30:49.470Z,100189.23
2019-02-11T16:33:21.054Z,100185.98
2019-02-11T16:35:52.769Z,100182.05
2019-02-11T16:38:27.681Z,100193.55
2019-02-11T16:40:59.391Z,100197.03
2019-02-11T16:43:32.724Z,100204.50
2019-02-11T16:46:04.300Z,100201.86
2019-02-11T16:48:35.902Z,100219.08
2019-02-11T16:51:07.455Z,100214.94
2019-02-11T16:53:39.386Z,100217.99
2019-02-11T16:56:11.863Z,100221.78
2019-02-11T16:58:43.492Z,100220.97
2019-02-11T17:01:15.224Z,100230.63
2019-02-11T17:03:46.870Z,100236.07
2019-02-11T17:06:18.601Z,100237.00
2019-02-11T17:08:51.334Z,100242.55
2019-02-11T17:11:23.526Z,100251.85
2019-02-11T17:13:55.177Z,100259.44
2019-02-11T17:16:26.792Z,100256.52
2019-02-11T17:18:58.399Z,100262.01
2019-02-11T17:21:31.944Z,100273.74
2019-02-11T17:24:04.078Z,100278.27
2019-02-11T17:26:35.667Z,100276.08
2019-02-11T17:29:07.266Z,100283.70
2019-02-11T17:31:39.475Z,100288.73
2019-02-11T17:34:13.755Z,100302.70
2019-02-11T17:36:45.463Z,100306.52
2019-02-11T17:39:18.354Z,100312.75
2019-02-11T17:41:50.145Z,100325.81
2019-02-11T17:44:21.899Z,100326.14
2019-02-11T17:46:53.600Z,100333.81
2019-02-11T17:49:25.340Z,100335.77
2019-02-11T17:51:57.008Z,100348.42
2019-02-11T17:54:29.050Z,100344.37
2019-02-11T17:57:04.824Z,100353.76
2019-02-11T17:59:38.348Z,100355.86
2019-02-11T18:02:11.641Z,100370.86
2019-02-11T18:04:44.074Z,100370.41
2019-02-11T18:07:15.650Z,100373.17
2019-02-11T18:09:50.203Z,100372.87
2019-02-11T18:12:21.849Z,100385.31
2019-02-11T18:14:53.448Z,100389.34
2019-02-11T18:17:25.176Z,100392.72
2019-02-11T18:19:56.793Z,100398.41
2019-02-11T18:22:28.513Z,100407.34
2019-02-11T18:25:00.371Z,100411.68
2019-02-11T18:27:38.023Z,100415.33
2019-02-11T18:30:17.254Z,100419.67
2019-02-11T18:32:52.513Z,100426.84
2019-02-11T18:35:24.321Z,100437.17
2019-02-11T18:37:56.054Z,100437.23
2019-02-11T18:40:27.628Z,100440.77
2019-02-11T18:42:59.297Z,100442.16
2019-02-11T18:45:30.901Z,100456.76
2019-02-11T18:48:02.481Z,100449.23
2019-02-11T18:50:34.118Z,100459.57
2019-02-11T18:53:05.779Z,100467.49
2019-02-11T18:55:37.582Z,100462.66
2019-02-11T18:58:09.250Z,100476.48
2019-02-11T19:00:41.269Z,100466.40
2019-02-11T19:03:13.554Z,100469.08
2019-02-11T19:05:45.342Z,100476.70
2019-02-11T19:08:16.968Z,100480.28
2019-02-11T19:10:48.585Z,100488.30
2019-02-11T19:13:21.195Z,100489.61
2019-02-11T19:15:52.779Z,100502.95
2019-02-11T19:18:24.465Z,100499.37
2019-02-11T19:20:56.291Z,100509.13
2019-02-11T19:23:27.956Z,100518.97
2019-02-11T19:25:59.656Z,100521.69
2019-02-11T19:28:31.296Z,100540.30
2019-02-11T19:31:03.014Z,100544.77
2019-02-11T19:33:34.770Z,100549.32
2019-02-11T19:36:06.507Z,100555.02
2019-02-11T19:38:38.379Z,100549.63
2019-02-11T19:41:10.016Z,100557.75
2019-02-11T19:43:41.705Z,100565.27
2019-02-11T19:46:13.343Z,100573.27
2019-02-11T19:48:44.905Z,100574.22
2019-02-11T19:51:16.490Z,100577.88
2019-02-11T19:53:48.079Z,100586.64
2019-02-11T19:56:19.669Z,100595.69
2019-02-11T19:58:51.420Z,100588.19
2019-02-11T20:01:23.388Z,100594.00
2019-02-11T20:03:55.006Z,100588.34
2019-02-11T20:06:26.595Z,100595.07
2019-02-11T20:08:58.328Z,100600.89
2019-02-11T20:11:30.031Z,100609.38
2019-02-11T20:14:01.746Z,100607.72
2019-02-11T20:16:34.359Z,100628.61
2019-02-11T20:19:13.518Z,100617.16
2019-02-11T20:21:45.169Z,100630.04
2019-02-11T20:24:16.780Z,100633.19
2019-02-11T20:26:48.413Z,100639.80
2019-02-11T20:29:20.075Z,100633.56
2019-02-11T20:31:52.169Z,100655.72
2019-02-11T20:34:25.154Z,100649.02
2019-02-11T20:36:56.914Z,100668.09
2019-02-11T20:39:28.588Z,100662.77
2019-02-11T20:42:00.252Z,100676.98
2019-02-11T20:44:32.628Z,100680.50
2019-02-11T20:47:04.400Z,100688.92
2019-02-11T20:49:36.062Z,100694.64
2019-02-11T20:52:07.691Z,100694.20
2019-02-11T20:54:39.533Z,100704.91
2019-02-11T20:57:11.319Z,100711.20
2019-02-11T20:59:42.972Z,100703.67
2019-02-11T21:02:15.874Z,100707.20
2019-02-11T21:04:49.248Z,100711.67
2019-02-11T21:07:21.895Z,100718.33
2019-02-11T21:09:53.477Z,100715.33
2019-02-11T21:12:25.198Z,100715.33
2019-02-11T21:14:57.393Z,100721.17
2019-02-11T21:17:28.998Z,100715.94
2019-02-11T21:20:00.711Z,100722.59
2019-02-11T21:22:32.345Z,100724.31
2019-02-11T21:25:04.521Z,100730.16
2019-02-11T21:27:36.141Z,100739.91
2019-02-11T21:30:11.927Z,100740.38
2019-02-11T21:32:43.481Z,100740.38
2019-02-11T21:35:15.117Z,100748.32
2019-02-11T21:37:46.931Z,100750.08
2019-02-11T21:40:18.576Z,100753.14
2019-02-11T21:42:50.228Z,100746.05
2019-02-11T21:45:21.824Z,100750.00
2019-02-11T21:47:53.541Z,100753.52
2019-02-11T21:50:26.975Z,100747.29
2019-02-11T21:52:58.403Z,100748.19
2019-02-11T21:55:30.119Z,100761.00
2019-02-11T21:58:01.702Z,100761.43
2019-02-11T22:00:33.347Z,100764.95
2019-02-11T22:03:05.123Z,100768.94
2019-02-11T22:05:36.785Z,100777.41
2019-02-11T22:08:08.425Z,100780.11
2019-02-11T22:10:40.012Z,100784.11
2019-02-11T22:13:11.751Z,100778.27
2019-02-11T22:15:44.612Z,100793.78
2019-02-11T22:18:16.817Z,100792.45
2019-02-11T22:20:48.558Z,100797.86
2019-02-11T22:23:20.213Z,100808.95
2019-02-11T22:25:51.805Z,100814.70
2019-02-11T22:28:23.455Z,100816.50
2019-02-11T22:30:55.641Z,100820.93
2019-02-11T22:33:27.321Z,100833.31
2019-02-11T22:35:59.065Z,100835.08
2019-02-11T22:38:30.648Z,100842.67
2019-02-11T22:41:02.312Z,100854.19
2019-02-11T22:43:34.197Z,100863.91
2019-02-11T22:46:06.464Z,100863.95
2019-02-11T22:48:38.071Z,100860.86
2019-02-11T22:51:11.288Z,100870.18
2019-02-11T22:53:43.940Z,100868.38
2019-02-11T22:56:15.497Z,100884.36
2019-02-11T22:58:48.642Z,100883.93
2019-02-11T23:01:20.290Z,100887.92
2019-02-11T23:03:52.018Z,100891.02
2019-02-11T23:06:23.598Z,100898.62
2019-02-11T23:08:55.247Z,100896.86
2019-02-11T23:11:26.907Z,100892.46
2019-02-11T23:13:58.494Z,100896.92
2019-02-11T23:16:30.087Z,100916.97
2019-02-11T23:19:01.724Z,100916.06
2019-02-11T23:21:33.383Z,100923.19
2019-02-11T23:24:05.067Z,100929.41
2019-02-11T23:26:38.333Z,100937.38
2019-02-11T23:29:10.001Z,100942.30
2019-02-11T23:31:41.645Z,100949.00
2019-02-11T23:34:13.310Z,100954.77
2019-02-11T23:36:44.963Z,100956.59
2019-02-11T23:39:16.735Z,100953.91
2019-02-11T23:41:48.350Z,100962.36
2019-02-11T23:44:20.010Z,100961.39
2019-02-11T23:46:51.605Z,100973.48
2019-02-11T23:49:23.177Z,100965.98
2019-02-11T23:51:54.819Z,100972.23
2019-02-11T23:54:26.445Z,100974.00
2019-02-11T23:56:58.011Z,100969.56
2019-02-11T23:59:29.639Z,100971.39
